createdAt,value
2022-08-22T00:19:43.806Z,18.28
2022-08-22T00:48:31.446Z,17.95
2022-08-22T01:17:23.904Z,17.34
2022-08-22T01:46:21.786Z,16.98
2022-08-22T02:14:43.131Z,16.52
2022-08-22T02:43:37.968Z,16.32
2022-08-22T03:12:36.987Z,16.13
2022-08-22T03:41:34.974Z,15.64
2022-08-22T04:10:38.273Z,15.75
2022-08-22T04:39:25.173Z,15.66
2022-08-22T05:08:25.719Z,16.1
2022-08-22T05:37:28.450Z,16.41
2022-08-22T06:06:10.162Z,17.26
2022-08-22T06:35:02.223Z,21.4
2022-08-22T07:03:44.427Z,20.02
2022-08-22T07:32:31.989Z,28.38
2022-08-22T08:01:15.086Z,24.23
2022-08-22T08:29:52.533Z,24.3
2022-08-22T08:58:38.340Z,25.05
2022-08-22T09:27:09.465Z,25.6
2022-08-22T09:56:11.505Z,26.11
2022-08-22T10:24:43.608Z,26.61
2022-08-22T10:52:59.479Z,27.08
2022-08-22T11:21:22.132Z,27.44
2022-08-22T11:49:58.941Z,27.84
2022-08-22T12:18:41.045Z,28.43
2022-08-22T12:47:11.023Z,28.92
2022-08-22T13:15:54.100Z,29.33
2022-08-22T13:44:11.500Z,29.63
2022-08-22T14:12:51.214Z,29.87
2022-08-22T14:41:05.805Z,30.16
2022-08-22T15:09:41.801Z,30.18
2022-08-22T15:38:01.868Z,29.7
2022-08-22T16:06:26.850Z,29.98
2022-08-22T16:34:57.495Z,30.18
2022-08-22T17:03:33.213Z,30.09
2022-08-22T17:32:02.084Z,29.06
2022-08-22T18:00:37.443Z,27.46
2022-08-22T18:29:11.407Z,25.66
2022-08-22T18:57:43.124Z,24.36
2022-08-22T19:26:00.003Z,23.48
2022-08-22T19:54:40.525Z,23.19
2022-08-22T20:23:21.724Z,22.25
2022-08-22T20:51:47.578Z,21.7
2022-08-22T21:20:14.054Z,20.77
2022-08-22T21:49:01.580Z,20.76
2022-08-22T22:17:35.685Z,20.25
2022-08-22T22:46:09.174Z,19.79
2022-08-22T23:14:44.731Z,19.5
2022-08-22T23:43:29.766Z,19.56
